sensor_id;sensor_type;location;lat;lon;timestamp;P1;durP1;ratioP1;P2;durP2;ratioP2
38264;SDS011;24062;47.480;8.768;2022-08-11T00:02:21;11.73;;;1.90;;
38264;SDS011;24062;47.480;8.768;2022-08-11T00:04:56;13.27;;;2.03;;
38264;SDS011;24062;47.480;8.768;2022-08-11T00:07:27;11.97;;;2.03;;
38264;SDS011;24062;47.480;8.768;2022-08-11T00:09:54;12.90;;;1.90;;
38264;SDS011;24062;47.480;8.768;2022-08-11T00:12:22;19.40;;;2.47;;
38264;SDS011;24062;47.480;8.768;2022-08-11T00:14:55;10.57;;;1.93;;
38264;SDS011;24062;47.480;8.768;2022-08-11T00:17:26;10.13;;;1.70;;
38264;SDS011;24062;47.480;8.768;2022-08-11T00:20:00;11.40;;;2.00;;
38264;SDS011;24062;47.480;8.768;2022-08-11T00:22:29;11.50;;;1.77;;
38264;SDS011;24062;47.480;8.768;2022-08-11T00:24:57;12.00;;;2.40;;
38264;SDS011;24062;47.480;8.768;2022-08-11T00:27:33;13.00;;;2.17;;
38264;SDS011;24062;47.480;8.768;2022-08-11T00:30:00;12.47;;;2.17;;
38264;SDS011;24062;47.480;8.768;2022-08-11T00:32:29;11.00;;;2.33;;
38264;SDS011;24062;47.480;8.768;2022-08-11T00:34:57;12.40;;;1.80;;
38264;SDS011;24062;47.480;8.768;2022-08-11T00:37:27;13.83;;;2.20;;
38264;SDS011;24062;47.480;8.768;2022-08-11T00:39:56;12.00;;;2.20;;
38264;SDS011;24062;47.480;8.768;2022-08-11T00:42:26;12.87;;;2.03;;
38264;SDS011;24062;47.480;8.768;2022-08-11T00:45:06;12.97;;;1.90;;
38264;SDS011;24062;47.480;8.768;2022-08-11T00:47:41;11.10;;;1.97;;
38264;SDS011;24062;47.480;8.768;2022-08-11T00:50:24;14.57;;;2.67;;
38264;SDS011;24062;47.480;8.768;2022-08-11T00:53:02;11.77;;;2.13;;
38264;SDS011;24062;47.480;8.768;2022-08-11T01:02:16;13.20;;;2.53;;
38264;SDS011;24062;47.480;8.768;2022-08-11T01:04:54;12.00;;;2.27;;
38264;SDS011;24062;47.480;8.768;2022-08-11T01:07:49;11.80;;;2.40;;
38264;SDS011;24062;47.480;8.768;2022-08-11T01:10:45;18.83;;;2.80;;
38264;SDS011;24062;47.480;8.768;2022-08-11T01:13:29;13.40;;;2.30;;
38264;SDS011;24062;47.480;8.768;2022-08-11T01:16:18;12.40;;;2.30;;
38264;SDS011;24062;47.480;8.768;2022-08-11T01:19:17;11.83;;;2.50;;
38264;SDS011;24062;47.480;8.768;2022-08-11T01:22:27;11.27;;;2.17;;
38264;SDS011;24062;47.480;8.768;2022-08-11T01:44:14;10.97;;;1.90;;
38264;SDS011;24062;47.480;8.768;2022-08-11T01:47:25;11.40;;;2.40;;
38264;SDS011;24062;47.480;8.768;2022-08-11T01:50:17;11.50;;;2.20;;
38264;SDS011;24062;47.480;8.768;2022-08-11T01:52:57;11.30;;;2.10;;
38264;SDS011;24062;47.480;8.768;2022-08-11T01:55:38;11.47;;;2.70;;
38264;SDS011;24062;47.480;8.768;2022-08-11T01:58:18;13.57;;;2.67;;
38264;SDS011;24062;47.480;8.768;2022-08-11T02:00:57;11.80;;;2.23;;
38264;SDS011;24062;47.480;8.768;2022-08-11T02:03:33;13.20;;;2.63;;
38264;SDS011;24062;47.480;8.768;2022-08-11T02:06:09;11.07;;;2.30;;
38264;SDS011;24062;47.480;8.768;2022-08-11T02:09:01;14.53;;;2.80;;
38264;SDS011;24062;47.480;8.768;2022-08-11T02:11:36;11.70;;;2.50;;
38264;SDS011;24062;47.480;8.768;2022-08-11T02:14:09;11.03;;;2.30;;
38264;SDS011;24062;47.480;8.768;2022-08-11T02:16:48;12.20;;;2.17;;
38264;SDS011;24062;47.480;8.768;2022-08-11T02:19:23;13.33;;;2.30;;
38264;SDS011;24062;47.480;8.768;2022-08-11T02:22:19;12.23;;;2.10;;
38264;SDS011;24062;47.480;8.768;2022-08-11T02:25:12;11.87;;;2.30;;
38264;SDS011;24062;47.480;8.768;2022-08-11T02:27:47;12.70;;;2.20;;
38264;SDS011;24062;47.480;8.768;2022-08-11T02:30:22;12.53;;;2.50;;
38264;SDS011;24062;47.480;8.768;2022-08-11T02:32:58;13.17;;;2.43;;
38264;SDS011;24062;47.480;8.768;2022-08-11T02:35:51;12.57;;;2.30;;
38264;SDS011;24062;47.480;8.768;2022-08-11T02:38:27;11.20;;;2.67;;
38264;SDS011;24062;47.480;8.768;2022-08-11T02:41:02;13.77;;;3.70;;
38264;SDS011;24062;47.480;8.768;2022-08-11T02:44:01;11.90;;;2.93;;
38264;SDS011;24062;47.480;8.768;2022-08-11T02:46:40;11.40;;;2.60;;
38264;SDS011;24062;47.480;8.768;2022-08-11T02:49:17;12.03;;;2.47;;
38264;SDS011;24062;47.480;8.768;2022-08-11T02:52:14;13.13;;;2.63;;
38264;SDS011;24062;47.480;8.768;2022-08-11T02:54:49;13.30;;;2.90;;
38264;SDS011;24062;47.480;8.768;2022-08-11T02:57:27;13.20;;;2.60;;
38264;SDS011;24062;47.480;8.768;2022-08-11T03:00:03;11.67;;;2.60;;
38264;SDS011;24062;47.480;8.768;2022-08-11T03:02:39;11.90;;;2.60;;
38264;SDS011;24062;47.480;8.768;2022-08-11T03:05:17;11.50;;;2.33;;
38264;SDS011;24062;47.480;8.768;2022-08-11T03:07:59;12.20;;;2.67;;
38264;SDS011;24062;47.480;8.768;2022-08-11T03:10:43;12.40;;;2.70;;
38264;SDS011;24062;47.480;8.768;2022-08-11T03:13:31;12.53;;;2.13;;
38264;SDS011;24062;47.480;8.768;2022-08-11T03:16:23;13.70;;;3.40;;
38264;SDS011;24062;47.480;8.768;2022-08-11T03:19:14;12.30;;;2.80;;
38264;SDS011;24062;47.480;8.768;2022-08-11T03:21:50;12.77;;;2.80;;
38264;SDS011;24062;47.480;8.768;2022-08-11T03:24:26;13.47;;;3.27;;
38264;SDS011;24062;47.480;8.768;2022-08-11T03:27:02;13.70;;;2.80;;
38264;SDS011;24062;47.480;8.768;2022-08-11T03:29:36;11.67;;;2.60;;
38264;SDS011;24062;47.480;8.768;2022-08-11T03:32:10;12.40;;;2.90;;
38264;SDS011;24062;47.480;8.768;2022-08-11T03:34:51;14.57;;;3.13;;
38264;SDS011;24062;47.480;8.768;2022-08-11T03:37:36;11.50;;;2.23;;
38264;SDS011;24062;47.480;8.768;2022-08-11T03:43:38;12.00;;;2.53;;
38264;SDS011;24062;47.480;8.768;2022-08-11T03:46:18;12.03;;;2.30;;
38264;SDS011;24062;47.480;8.768;2022-08-11T03:49:02;15.50;;;3.00;;
38264;SDS011;24062;47.480;8.768;2022-08-11T03:51:38;17.50;;;3.43;;
38264;SDS011;24062;47.480;8.768;2022-08-11T03:54:19;12.33;;;2.57;;
38264;SDS011;24062;47.480;8.768;2022-08-11T04:00:28;12.67;;;2.50;;
38264;SDS011;24062;47.480;8.768;2022-08-11T04:06:41;12.17;;;2.73;;
38264;SDS011;24062;47.480;8.768;2022-08-11T04:15:44;14.47;;;3.17;;
38264;SDS011;24062;47.480;8.768;2022-08-11T04:27:52;13.53;;;2.90;;
38264;SDS011;24062;47.480;8.768;2022-08-11T04:30:41;12.70;;;2.67;;
38264;SDS011;24062;47.480;8.768;2022-08-11T04:33:34;14.00;;;3.43;;
38264;SDS011;24062;47.480;8.768;2022-08-11T04:36:34;12.90;;;3.50;;
38264;SDS011;24062;47.480;8.768;2022-08-11T04:39:32;12.33;;;3.00;;
38264;SDS011;24062;47.480;8.768;2022-08-11T04:42:21;13.73;;;3.07;;
38264;SDS011;24062;47.480;8.768;2022-08-11T04:45:38;13.20;;;3.30;;
38264;SDS011;24062;47.480;8.768;2022-08-11T04:48:22;14.47;;;3.40;;
38264;SDS011;24062;47.480;8.768;2022-08-11T04:51:34;13.13;;;2.90;;
38264;SDS011;24062;47.480;8.768;2022-08-11T04:54:44;12.37;;;3.27;;
38264;SDS011;24062;47.480;8.768;2022-08-11T04:57:40;13.70;;;3.20;;
38264;SDS011;24062;47.480;8.768;2022-08-11T05:00:36;12.30;;;2.87;;
38264;SDS011;24062;47.480;8.768;2022-08-11T05:03:34;13.80;;;3.40;;
38264;SDS011;24062;47.480;8.768;2022-08-11T05:09:47;14.80;;;3.27;;
38264;SDS011;24062;47.480;8.768;2022-08-11T05:12:34;12.27;;;2.93;;
38264;SDS011;24062;47.480;8.768;2022-08-11T05:15:09;12.67;;;3.10;;
38264;SDS011;24062;47.480;8.768;2022-08-11T05:17:56;13.40;;;2.93;;
38264;SDS011;24062;47.480;8.768;2022-08-11T05:20:46;12.70;;;2.60;;
38264;SDS011;24062;47.480;8.768;2022-08-11T05:23:34;12.33;;;2.80;;
38264;SDS011;24062;47.480;8.768;2022-08-11T05:26:34;14.30;;;2.73;;
38264;SDS011;24062;47.480;8.768;2022-08-11T05:29:33;11.93;;;2.90;;
38264;SDS011;24062;47.480;8.768;2022-08-11T05:32:22;13.53;;;2.60;;
38264;SDS011;24062;47.480;8.768;2022-08-11T05:35:11;12.20;;;3.10;;
38264;SDS011;24062;47.480;8.768;2022-08-11T05:37:41;11.77;;;2.70;;
38264;SDS011;24062;47.480;8.768;2022-08-11T05:40:26;12.07;;;2.60;;
38264;SDS011;24062;47.480;8.768;2022-08-11T05:43:13;12.67;;;3.20;;
38264;SDS011;24062;47.480;8.768;2022-08-11T05:45:59;12.33;;;2.77;;
38264;SDS011;24062;47.480;8.768;2022-08-11T05:48:44;12.07;;;2.70;;
38264;SDS011;24062;47.480;8.768;2022-08-11T05:51:33;11.33;;;2.40;;
38264;SDS011;24062;47.480;8.768;2022-08-11T05:54:18;11.53;;;2.37;;
38264;SDS011;24062;47.480;8.768;2022-08-11T05:57:04;14.30;;;2.80;;
38264;SDS011;24062;47.480;8.768;2022-08-11T05:59:34;11.60;;;2.17;;
38264;SDS011;24062;47.480;8.768;2022-08-11T06:02:01;12.60;;;2.60;;
38264;SDS011;24062;47.480;8.768;2022-08-11T06:04:30;13.33;;;2.83;;
38264;SDS011;24062;47.480;8.768;2022-08-11T06:07:00;11.70;;;2.50;;
38264;SDS011;24062;47.480;8.768;2022-08-11T06:09:29;11.90;;;2.40;;
38264;SDS011;24062;47.480;8.768;2022-08-11T06:11:59;11.90;;;2.20;;
38264;SDS011;24062;47.480;8.768;2022-08-11T06:14:29;13.37;;;3.27;;
38264;SDS011;24062;47.480;8.768;2022-08-11T06:16:59;16.60;;;2.70;;
38264;SDS011;24062;47.480;8.768;2022-08-11T06:19:34;15.73;;;2.87;;
38264;SDS011;24062;47.480;8.768;2022-08-11T06:22:04;19.43;;;3.17;;
38264;SDS011;24062;47.480;8.768;2022-08-11T06:24:35;13.23;;;2.90;;
38264;SDS011;24062;47.480;8.768;2022-08-11T06:27:03;14.97;;;2.53;;
38264;SDS011;24062;47.480;8.768;2022-08-11T06:29:33;14.70;;;2.73;;
38264;SDS011;24062;47.480;8.768;2022-08-11T06:32:07;14.30;;;3.13;;
38264;SDS011;24062;47.480;8.768;2022-08-11T06:34:45;13.20;;;3.20;;
38264;SDS011;24062;47.480;8.768;2022-08-11T06:37:22;15.83;;;2.77;;
38264;SDS011;24062;47.480;8.768;2022-08-11T06:40:00;13.27;;;2.37;;
38264;SDS011;24062;47.480;8.768;2022-08-11T06:42:42;12.13;;;2.00;;
38264;SDS011;24062;47.480;8.768;2022-08-11T06:45:26;11.40;;;2.30;;
38264;SDS011;24062;47.480;8.768;2022-08-11T06:47:57;18.03;;;2.27;;
38264;SDS011;24062;47.480;8.768;2022-08-11T06:50:27;14.23;;;2.53;;
38264;SDS011;24062;47.480;8.768;2022-08-11T06:53:14;12.20;;;2.40;;
38264;SDS011;24062;47.480;8.768;2022-08-11T06:55:44;17.77;;;2.37;;
38264;SDS011;24062;47.480;8.768;2022-08-11T06:58:31;12.50;;;2.40;;
38264;SDS011;24062;47.480;8.768;2022-08-11T07:01:18;13.40;;;2.93;;
38264;SDS011;24062;47.480;8.768;2022-08-11T07:04:01;13.80;;;2.40;;
38264;SDS011;24062;47.480;8.768;2022-08-11T07:06:34;16.80;;;2.80;;
38264;SDS011;24062;47.480;8.768;2022-08-11T07:09:32;12.63;;;2.30;;
38264;SDS011;24062;47.480;8.768;2022-08-11T07:12:42;13.50;;;2.23;;
38264;SDS011;24062;47.480;8.768;2022-08-11T07:15:30;13.80;;;2.37;;
38264;SDS011;24062;47.480;8.768;2022-08-11T07:18:08;11.30;;;2.10;;
38264;SDS011;24062;47.480;8.768;2022-08-11T07:21:05;13.23;;;2.43;;
38264;SDS011;24062;47.480;8.768;2022-08-11T07:23:53;14.20;;;2.13;;
38264;SDS011;24062;47.480;8.768;2022-08-11T07:26:40;12.10;;;2.20;;
38264;SDS011;24062;47.480;8.768;2022-08-11T07:29:30;14.23;;;2.20;;
38264;SDS011;24062;47.480;8.768;2022-08-11T07:31:58;16.43;;;2.27;;
38264;SDS011;24062;47.480;8.768;2022-08-11T07:34:34;12.27;;;2.30;;
38264;SDS011;24062;47.480;8.768;2022-08-11T07:37:07;12.40;;;2.17;;
38264;SDS011;24062;47.480;8.768;2022-08-11T07:39:37;13.97;;;2.30;;
38264;SDS011;24062;47.480;8.768;2022-08-11T07:42:08;14.93;;;2.40;;
38264;SDS011;24062;47.480;8.768;2022-08-11T07:44:38;11.80;;;2.20;;
38264;SDS011;24062;47.480;8.768;2022-08-11T07:47:20;11.80;;;2.23;;
38264;SDS011;24062;47.480;8.768;2022-08-11T07:50:06;16.20;;;2.60;;
38264;SDS011;24062;47.480;8.768;2022-08-11T07:52:54;14.40;;;3.00;;
38264;SDS011;24062;47.480;8.768;2022-08-11T07:55:22;13.30;;;2.40;;
38264;SDS011;24062;47.480;8.768;2022-08-11T07:57:50;11.33;;;1.97;;
38264;SDS011;24062;47.480;8.768;2022-08-11T08:00:36;14.03;;;2.17;;
38264;SDS011;24062;47.480;8.768;2022-08-11T08:03:23;12.20;;;2.13;;
38264;SDS011;24062;47.480;8.768;2022-08-11T08:06:07;12.60;;;2.17;;
38264;SDS011;24062;47.480;8.768;2022-08-11T08:08:53;12.53;;;2.10;;
38264;SDS011;24062;47.480;8.768;2022-08-11T08:11:39;11.90;;;2.00;;
38264;SDS011;24062;47.480;8.768;2022-08-11T08:14:24;13.60;;;2.93;;
38264;SDS011;24062;47.480;8.768;2022-08-11T08:17:08;14.53;;;2.40;;
38264;SDS011;24062;47.480;8.768;2022-08-11T08:19:53;12.37;;;2.10;;
38264;SDS011;24062;47.480;8.768;2022-08-11T08:22:21;16.03;;;3.07;;
38264;SDS011;24062;47.480;8.768;2022-08-11T08:24:49;15.30;;;2.50;;
38264;SDS011;24062;47.480;8.768;2022-08-11T08:27:19;14.93;;;2.77;;
38264;SDS011;24062;47.480;8.768;2022-08-11T08:29:46;14.53;;;2.40;;
38264;SDS011;24062;47.480;8.768;2022-08-11T08:32:31;13.00;;;2.53;;
38264;SDS011;24062;47.480;8.768;2022-08-11T08:34:59;12.87;;;2.40;;
38264;SDS011;24062;47.480;8.768;2022-08-11T08:37:28;18.83;;;2.60;;
38264;SDS011;24062;47.480;8.768;2022-08-11T08:39:56;16.23;;;2.43;;
38264;SDS011;24062;47.480;8.768;2022-08-11T08:42:25;12.00;;;2.43;;
38264;SDS011;24062;47.480;8.768;2022-08-11T08:44:56;12.87;;;2.43;;
38264;SDS011;24062;47.480;8.768;2022-08-11T08:47:27;14.17;;;2.50;;
38264;SDS011;24062;47.480;8.768;2022-08-11T08:49:58;14.17;;;2.13;;
38264;SDS011;24062;47.480;8.768;2022-08-11T08:52:28;13.80;;;2.37;;
38264;SDS011;24062;47.480;8.768;2022-08-11T08:55:02;15.27;;;2.33;;
38264;SDS011;24062;47.480;8.768;2022-08-11T08:57:31;18.03;;;2.43;;
38264;SDS011;24062;47.480;8.768;2022-08-11T09:00:03;12.27;;;2.30;;
38264;SDS011;24062;47.480;8.768;2022-08-11T09:02:31;11.80;;;2.30;;
38264;SDS011;24062;47.480;8.768;2022-08-11T09:04:58;12.97;;;2.47;;
38264;SDS011;24062;47.480;8.768;2022-08-11T09:07:26;12.53;;;2.20;;
38264;SDS011;24062;47.480;8.768;2022-08-11T09:09:55;18.73;;;2.37;;
38264;SDS011;24062;47.480;8.768;2022-08-11T09:12:26;14.70;;;2.50;;
38264;SDS011;24062;47.480;8.768;2022-08-11T09:14:55;14.17;;;2.90;;
38264;SDS011;24062;47.480;8.768;2022-08-11T09:17:28;14.57;;;2.70;;
38264;SDS011;24062;47.480;8.768;2022-08-11T09:19:58;15.00;;;2.83;;
38264;SDS011;24062;47.480;8.768;2022-08-11T09:22:28;14.00;;;3.00;;
38264;SDS011;24062;47.480;8.768;2022-08-11T09:25:15;13.70;;;2.60;;
38264;SDS011;24062;47.480;8.768;2022-08-11T09:28:01;12.23;;;2.63;;
38264;SDS011;24062;47.480;8.768;2022-08-11T09:30:30;12.17;;;2.53;;
38264;SDS011;24062;47.480;8.768;2022-08-11T09:32:58;12.87;;;2.60;;
38264;SDS011;24062;47.480;8.768;2022-08-11T09:35:29;17.70;;;2.90;;
38264;SDS011;24062;47.480;8.768;2022-08-11T09:38:00;13.80;;;2.60;;
38264;SDS011;24062;47.480;8.768;2022-08-11T09:40:47;12.00;;;2.43;;
38264;SDS011;24062;47.480;8.768;2022-08-11T09:43:17;14.10;;;2.60;;
38264;SDS011;24062;47.480;8.768;2022-08-11T09:46:02;13.23;;;2.43;;
38264;SDS011;24062;47.480;8.768;2022-08-11T09:48:31;11.77;;;2.00;;
38264;SDS011;24062;47.480;8.768;2022-08-11T09:51:02;12.30;;;2.30;;
38264;SDS011;24062;47.480;8.768;2022-08-11T09:53:31;13.80;;;2.50;;
38264;SDS011;24062;47.480;8.768;2022-08-11T09:56:01;14.10;;;2.10;;
38264;SDS011;24062;47.480;8.768;2022-08-11T09:58:50;13.63;;;2.30;;
38264;SDS011;24062;47.480;8.768;2022-08-11T10:01:19;13.10;;;2.60;;
38264;SDS011;24062;47.480;8.768;2022-08-11T10:03:54;15.67;;;2.93;;
38264;SDS011;24062;47.480;8.768;2022-08-11T10:06:26;14.23;;;3.13;;
38264;SDS011;24062;47.480;8.768;2022-08-11T10:09:14;18.60;;;2.87;;
38264;SDS011;24062;47.480;8.768;2022-08-11T10:11:43;19.80;;;2.80;;
38264;SDS011;24062;47.480;8.768;2022-08-11T10:14:12;12.50;;;2.27;;
38264;SDS011;24062;47.480;8.768;2022-08-11T10:16:59;13.47;;;2.40;;
38264;SDS011;24062;47.480;8.768;2022-08-11T10:19:31;14.80;;;2.60;;
38264;SDS011;24062;47.480;8.768;2022-08-11T10:21:59;21.50;;;2.53;;
38264;SDS011;24062;47.480;8.768;2022-08-11T10:24:45;12.10;;;2.40;;
38264;SDS011;24062;47.480;8.768;2022-08-11T10:27:30;12.30;;;1.93;;
38264;SDS011;24062;47.480;8.768;2022-08-11T10:29:59;12.80;;;2.27;;
38264;SDS011;24062;47.480;8.768;2022-08-11T10:32:44;14.20;;;2.40;;
38264;SDS011;24062;47.480;8.768;2022-08-11T10:35:32;13.00;;;2.60;;
38264;SDS011;24062;47.480;8.768;2022-08-11T10:37:59;13.53;;;2.70;;
38264;SDS011;24062;47.480;8.768;2022-08-11T10:40:27;12.53;;;2.13;;
38264;SDS011;24062;47.480;8.768;2022-08-11T10:42:56;15.93;;;2.20;;
38264;SDS011;24062;47.480;8.768;2022-08-11T10:45:29;13.90;;;2.63;;
38264;SDS011;24062;47.480;8.768;2022-08-11T10:48:16;14.90;;;2.30;;
38264;SDS011;24062;47.480;8.768;2022-08-11T10:50:45;11.60;;;2.20;;
38264;SDS011;24062;47.480;8.768;2022-08-11T10:53:31;14.23;;;2.30;;
38264;SDS011;24062;47.480;8.768;2022-08-11T10:56:16;11.77;;;2.13;;
38264;SDS011;24062;47.480;8.768;2022-08-11T10:59:02;11.93;;;2.20;;
38264;SDS011;24062;47.480;8.768;2022-08-11T11:01:34;14.40;;;2.50;;
38264;SDS011;24062;47.480;8.768;2022-08-11T11:04:05;15.87;;;3.10;;
38264;SDS011;24062;47.480;8.768;2022-08-11T11:06:37;12.60;;;2.37;;
38264;SDS011;24062;47.480;8.768;2022-08-11T11:09:20;20.30;;;2.43;;
38264;SDS011;24062;47.480;8.768;2022-08-11T11:11:58;14.60;;;2.70;;
38264;SDS011;24062;47.480;8.768;2022-08-11T11:14:46;13.07;;;2.13;;
38264;SDS011;24062;47.480;8.768;2022-08-11T11:17:36;12.83;;;2.10;;
38264;SDS011;24062;47.480;8.768;2022-08-11T11:20:22;12.43;;;2.50;;
38264;SDS011;24062;47.480;8.768;2022-08-11T11:22:52;14.03;;;2.23;;
38264;SDS011;24062;47.480;8.768;2022-08-11T11:25:26;13.03;;;2.33;;
38264;SDS011;24062;47.480;8.768;2022-08-11T11:28:09;12.10;;;2.00;;
38264;SDS011;24062;47.480;8.768;2022-08-11T11:30:53;13.50;;;2.47;;
38264;SDS011;24062;47.480;8.768;2022-08-11T11:33:34;12.10;;;2.40;;
38264;SDS011;24062;47.480;8.768;2022-08-11T11:36:14;11.57;;;2.17;;
38264;SDS011;24062;47.480;8.768;2022-08-11T11:38:47;12.37;;;2.10;;
38264;SDS011;24062;47.480;8.768;2022-08-11T11:41:14;14.30;;;2.13;;
38264;SDS011;24062;47.480;8.768;2022-08-11T11:43:50;11.18;;;1.95;;
38264;SDS011;24062;47.480;8.768;2022-08-11T11:46:19;13.82;;;2.47;;
38264;SDS011;24062;47.480;8.768;2022-08-11T11:48:48;16.20;;;2.17;;
38264;SDS011;24062;47.480;8.768;2022-08-11T11:51:15;11.18;;;2.10;;
38264;SDS011;24062;47.480;8.768;2022-08-11T11:53:42;12.27;;;2.20;;
38264;SDS011;24062;47.480;8.768;2022-08-11T11:56:12;13.65;;;2.47;;
38264;SDS011;24062;47.480;8.768;2022-08-11T11:58:40;12.70;;;2.05;;
38264;SDS011;24062;47.480;8.768;2022-08-11T12:01:26;15.43;;;2.45;;
38264;SDS011;24062;47.480;8.768;2022-08-11T12:03:55;12.63;;;2.13;;
38264;SDS011;24062;47.480;8.768;2022-08-11T12:06:23;14.95;;;1.98;;
38264;SDS011;24062;47.480;8.768;2022-08-11T12:08:52;15.40;;;2.30;;
38264;SDS011;24062;47.480;8.768;2022-08-11T12:11:23;13.20;;;1.85;;
38264;SDS011;24062;47.480;8.768;2022-08-11T12:14:09;13.70;;;2.10;;
38264;SDS011;24062;47.480;8.768;2022-08-11T12:16:37;13.77;;;2.30;;
38264;SDS011;24062;47.480;8.768;2022-08-11T12:19:08;11.40;;;1.90;;
38264;SDS011;24062;47.480;8.768;2022-08-11T12:21:37;14.38;;;1.98;;
38264;SDS011;24062;47.480;8.768;2022-08-11T12:24:27;13.55;;;2.40;;
38264;SDS011;24062;47.480;8.768;2022-08-11T12:27:12;14.95;;;1.98;;
38264;SDS011;24062;47.480;8.768;2022-08-11T12:29:46;12.65;;;2.13;;
38264;SDS011;24062;47.480;8.768;2022-08-11T12:32:14;12.98;;;2.00;;
38264;SDS011;24062;47.480;8.768;2022-08-11T12:34:43;11.48;;;1.52;;
38264;SDS011;24062;47.480;8.768;2022-08-11T12:37:10;14.07;;;2.22;;
38264;SDS011;24062;47.480;8.768;2022-08-11T12:39:41;13.88;;;1.75;;
38264;SDS011;24062;47.480;8.768;2022-08-11T12:42:27;13.20;;;1.75;;
38264;SDS011;24062;47.480;8.768;2022-08-11T12:45:13;11.80;;;1.88;;
38264;SDS011;24062;47.480;8.768;2022-08-11T12:47:52;14.18;;;1.95;;
38264;SDS011;24062;47.480;8.768;2022-08-11T12:50:42;13.63;;;1.90;;
38264;SDS011;24062;47.480;8.768;2022-08-11T12:53:32;19.10;;;2.30;;
38264;SDS011;24062;47.480;8.768;2022-08-11T12:56:02;11.90;;;1.80;;
38264;SDS011;24062;47.480;8.768;2022-08-11T12:58:50;11.45;;;2.03;;
38264;SDS011;24062;47.480;8.768;2022-08-11T13:01:32;12.90;;;2.00;;
38264;SDS011;24062;47.480;8.768;2022-08-11T13:04:17;10.75;;;1.95;;
38264;SDS011;24062;47.480;8.768;2022-08-11T13:07:03;14.00;;;1.90;;
38264;SDS011;24062;47.480;8.768;2022-08-11T13:09:30;15.90;;;1.90;;
38264;SDS011;24062;47.480;8.768;2022-08-11T13:11:57;13.60;;;1.88;;
38264;SDS011;24062;47.480;8.768;2022-08-11T13:14:42;14.77;;;1.85;;
38264;SDS011;24062;47.480;8.768;2022-08-11T13:17:09;12.10;;;1.92;;
38264;SDS011;24062;47.480;8.768;2022-08-11T13:19:50;11.20;;;1.83;;
38264;SDS011;24062;47.480;8.768;2022-08-11T13:22:19;11.25;;;1.55;;
38264;SDS011;24062;47.480;8.768;2022-08-11T13:24:48;14.43;;;2.08;;
38264;SDS011;24062;47.480;8.768;2022-08-11T13:27:19;12.20;;;1.90;;
38264;SDS011;24062;47.480;8.768;2022-08-11T13:29:47;11.82;;;1.92;;
38264;SDS011;24062;47.480;8.768;2022-08-11T13:32:18;13.88;;;1.85;;
38264;SDS011;24062;47.480;8.768;2022-08-11T13:34:50;13.57;;;1.85;;
38264;SDS011;24062;47.480;8.768;2022-08-11T13:37:17;11.30;;;1.77;;
38264;SDS011;24062;47.480;8.768;2022-08-11T13:39:47;14.95;;;1.92;;
38264;SDS011;24062;47.480;8.768;2022-08-11T13:42:14;14.95;;;1.77;;
38264;SDS011;24062;47.480;8.768;2022-08-11T13:44:45;17.52;;;2.10;;
38264;SDS011;24062;47.480;8.768;2022-08-11T13:47:13;12.95;;;2.20;;
38264;SDS011;24062;47.480;8.768;2022-08-11T13:49:41;13.18;;;2.10;;
38264;SDS011;24062;47.480;8.768;2022-08-11T13:52:10;18.17;;;1.65;;
38264;SDS011;24062;47.480;8.768;2022-08-11T13:54:42;14.88;;;2.00;;
38264;SDS011;24062;47.480;8.768;2022-08-11T13:57:12;12.35;;;2.25;;
38264;SDS011;24062;47.480;8.768;2022-08-11T13:59:43;11.50;;;1.60;;
38264;SDS011;24062;47.480;8.768;2022-08-11T14:02:12;12.43;;;1.95;;
38264;SDS011;24062;47.480;8.768;2022-08-11T14:04:42;11.07;;;1.60;;
38264;SDS011;24062;47.480;8.768;2022-08-11T14:07:13;11.73;;;2.13;;
38264;SDS011;24062;47.480;8.768;2022-08-11T14:09:47;11.02;;;1.80;;
38264;SDS011;24062;47.480;8.768;2022-08-11T14:12:21;13.40;;;1.63;;
38264;SDS011;24062;47.480;8.768;2022-08-11T14:15:10;14.68;;;1.65;;
38264;SDS011;24062;47.480;8.768;2022-08-11T14:17:44;17.52;;;1.88;;
38264;SDS011;24062;47.480;8.768;2022-08-11T14:20:15;11.50;;;2.15;;
38264;SDS011;24062;47.480;8.768;2022-08-11T14:22:44;10.52;;;1.55;;
38264;SDS011;24062;47.480;8.768;2022-08-11T14:25:13;11.43;;;1.65;;
38264;SDS011;24062;47.480;8.768;2022-08-11T14:27:41;12.35;;;2.60;;
38264;SDS011;24062;47.480;8.768;2022-08-11T14:30:10;15.35;;;2.42;;
38264;SDS011;24062;47.480;8.768;2022-08-11T14:32:58;10.45;;;1.70;;
38264;SDS011;24062;47.480;8.768;2022-08-11T14:35:26;12.85;;;2.00;;
38264;SDS011;24062;47.480;8.768;2022-08-11T14:37:54;14.05;;;2.00;;
38264;SDS011;24062;47.480;8.768;2022-08-11T14:40:25;11.75;;;2.15;;
38264;SDS011;24062;47.480;8.768;2022-08-11T14:43:21;10.27;;;1.80;;
38264;SDS011;24062;47.480;8.768;2022-08-11T14:46:07;10.63;;;1.80;;
38264;SDS011;24062;47.480;8.768;2022-08-11T14:49:00;10.15;;;1.63;;
38264;SDS011;24062;47.480;8.768;2022-08-11T14:51:27;10.93;;;1.80;;
38264;SDS011;24062;47.480;8.768;2022-08-11T14:53:54;13.65;;;1.88;;
38264;SDS011;24062;47.480;8.768;2022-08-11T14:56:43;11.50;;;1.90;;
38264;SDS011;24062;47.480;8.768;2022-08-11T14:59:10;10.90;;;1.75;;
38264;SDS011;24062;47.480;8.768;2022-08-11T15:01:38;10.10;;;2.05;;
38264;SDS011;24062;47.480;8.768;2022-08-11T15:04:23;11.13;;;2.00;;
38264;SDS011;24062;47.480;8.768;2022-08-11T15:06:51;10.30;;;2.10;;
38264;SDS011;24062;47.480;8.768;2022-08-11T15:09:18;10.20;;;1.75;;
38264;SDS011;24062;47.480;8.768;2022-08-11T15:11:47;10.20;;;2.00;;
38264;SDS011;24062;47.480;8.768;2022-08-11T15:14:31;10.85;;;2.13;;
38264;SDS011;24062;47.480;8.768;2022-08-11T15:17:16;10.10;;;1.80;;
38264;SDS011;24062;47.480;8.768;2022-08-11T15:19:44;10.10;;;1.95;;
38264;SDS011;24062;47.480;8.768;2022-08-11T15:22:26;11.55;;;1.80;;
38264;SDS011;24062;47.480;8.768;2022-08-11T15:25:11;10.48;;;1.92;;
38264;SDS011;24062;47.480;8.768;2022-08-11T15:27:39;10.00;;;1.77;;
38264;SDS011;24062;47.480;8.768;2022-08-11T15:30:28;9.82;;;1.83;;
38264;SDS011;24062;47.480;8.768;2022-08-11T15:33:13;11.52;;;1.77;;
38264;SDS011;24062;47.480;8.768;2022-08-11T15:35:59;10.98;;;2.13;;
38264;SDS011;24062;47.480;8.768;2022-08-11T15:39:00;12.82;;;1.88;;
38264;SDS011;24062;47.480;8.768;2022-08-11T15:41:36;10.68;;;1.95;;
38264;SDS011;24062;47.480;8.768;2022-08-11T15:44:28;10.40;;;1.90;;
38264;SDS011;24062;47.480;8.768;2022-08-11T15:47:19;11.43;;;1.60;;
38264;SDS011;24062;47.480;8.768;2022-08-11T15:49:51;10.60;;;2.10;;
38264;SDS011;24062;47.480;8.768;2022-08-11T15:52:22;10.65;;;1.70;;
38264;SDS011;24062;47.480;8.768;2022-08-11T15:54:55;12.88;;;1.90;;
38264;SDS011;24062;47.480;8.768;2022-08-11T15:57:23;13.15;;;2.05;;
38264;SDS011;24062;47.480;8.768;2022-08-11T16:00:11;10.45;;;1.60;;
38264;SDS011;24062;47.480;8.768;2022-08-11T16:02:58;14.52;;;2.22;;
38264;SDS011;24062;47.480;8.768;2022-08-11T16:05:44;13.23;;;1.98;;
38264;SDS011;24062;47.480;8.768;2022-08-11T16:08:13;13.93;;;2.00;;
38264;SDS011;24062;47.480;8.768;2022-08-11T16:10:42;10.85;;;1.60;;
38264;SDS011;24062;47.480;8.768;2022-08-11T16:13:10;12.50;;;1.77;;
38264;SDS011;24062;47.480;8.768;2022-08-11T16:15:58;11.85;;;2.03;;
38264;SDS011;24062;47.480;8.768;2022-08-11T16:18:42;10.15;;;1.60;;
38264;SDS011;24062;47.480;8.768;2022-08-11T16:21:12;12.70;;;1.70;;
38264;SDS011;24062;47.480;8.768;2022-08-11T16:23:42;12.52;;;1.73;;
38264;SDS011;24062;47.480;8.768;2022-08-11T16:26:12;23.15;;;2.40;;
38264;SDS011;24062;47.480;8.768;2022-08-11T16:28:43;10.70;;;1.90;;
38264;SDS011;24062;47.480;8.768;2022-08-11T16:31:12;10.40;;;1.83;;
38264;SDS011;24062;47.480;8.768;2022-08-11T16:33:40;10.80;;;1.92;;